MSC Alexa — 3FPP6 — position and weather

sailwx.info

Track history (hours):
 
Tides and Currents Weather Stations Pressure Air Temp Water Temp Dewpoint Dewpoint Depression Visibility Wind Speed Wind Dir Waves Ship Positions

MSC Alexa

Last reported at 2014-Dec-15 06:33 UTC. Time now 2014-Dec-20 03:03 UTC.
Position S 24°11' W 046°26'.

Length 243 m; draft 9.7 m.

Type: Ship (hazmat cat D). MMSI: 356904000.

Date/timePositionNaut miles runAvg speedWind from/ knotsBaromVisibWave heightAir tempDewpointWater temp
2014-Dec-15 06:33S 24°11' W 046°26'1212.5
2014-Dec-15 05:33S 23°60' W 046°20'5 4.6
2014-Dec-15 04:32S 23°55' W 046°21'0 0.0
2014-Dec-14 02:14S 23°55' W 046°21'3 4.4
2014-Dec-14 01:34S 23°57' W 046°19'7 7.1
2014-Dec-14 00:33S 24°03' W 046°22'7 0.8
2014-Dec-13 16:04S 24°10' W 046°19'0 0.1
2014-Dec-13 11:20S 24°10' W 046°19'0 0.0
2014-Dec-13 10:26S 24°10' W 046°19'0 0.0
2014-Dec-13 09:31S 24°10' W 046°19'0 0.0
2014-Dec-13 07:18S 24°10' W 046°19'0 0.0
2014-Dec-13 06:33S 24°10' W 046°19'0 0.0
2014-Dec-13 05:30S 24°10' W 046°19'0 0.0
2014-Dec-13 04:29S 24°10' W 046°19'0 0.0
2014-Dec-13 03:29S 24°10' W 046°19'0 0.1
2014-Dec-13 02:28S 24°10' W 046°19'0 0.0
2014-Dec-13 01:16S 24°10' W 046°19'0 0.0
2014-Dec-12 23:27S 24°10' W 046°19'0 0.2
2014-Dec-12 22:30S 24°10' W 046°19'0 0.1
2014-Dec-12 21:20S 24°10' W 046°19'0 0.0
2014-Dec-12 20:20S 24°10' W 046°19'0 0.0
2014-Dec-12 18:07S 24°10' W 046°19'0 0.0
2014-Dec-12 17:30S 24°10' W 046°19'0 0.1
2014-Dec-12 16:18S 24°10' W 046°19'0 0.0
2014-Dec-12 15:30S 24°10' W 046°19'0 0.0
2014-Dec-12 10:09S 24°10' W 046°19'0 0.0
2014-Dec-12 09:33S 24°10' W 046°19'0 0.0
2014-Dec-12 07:32S 24°10' W 046°19'0 0.0
2014-Dec-12 06:32S 24°10' W 046°19'0 0.0
2014-Dec-12 05:31S 24°10' W 046°19'0 0.1
2014-Dec-12 03:18S 24°10' W 046°19'0 0.0
2014-Dec-12 02:30S 24°10' W 046°19'0 0.1
2014-Dec-12 01:17S 24°10' W 046°19'0 0.0
2014-Dec-11 19:09S 24°10' W 046°19'0 0.0
2014-Dec-11 12:28S 24°10' W 046°19'0 0.1
2014-Dec-11 11:20S 24°10' W 046°19'0 0.0
2014-Dec-11 10:14S 24°10' W 046°19'6 3.2
2014-Dec-11 08:31S 24°15' W 046°16'  
Track history (hours):
 
Tides and Currents Weather Stations Pressure Air Temp Water Temp Dewpoint Dewpoint Depression Visibility Wind Speed Wind Dir Waves Ship Positions

MSC Alexa

Last reported at 2014-Dec-15 06:33 UTC. Time now 2014-Dec-20 03:03 UTC.
Position S 24°11' W 046°26'.

Length 243 m; draft 9.7 m.

Type: Ship (hazmat cat D). MMSI: 356904000.

Date/timePositionNaut miles runAvg speedWind from/ knotsBaromVisibWave heightAir tempDewpointWater temp
2014-Dec-15 06:33S 24°11' W 046°26'1212.5
2014-Dec-15 05:33S 23°60' W 046°20'5 4.6
2014-Dec-15 04:32S 23°55' W 046°21'0 0.0
2014-Dec-14 02:14S 23°55' W 046°21'3 4.4
2014-Dec-14 01:34S 23°57' W 046°19'7 7.1
2014-Dec-14 00:33S 24°03' W 046°22'7 0.8
2014-Dec-13 16:04S 24°10' W 046°19'0 0.1
2014-Dec-13 11:20S 24°10' W 046°19'0 0.0
2014-Dec-13 10:26S 24°10' W 046°19'0 0.0
2014-Dec-13 09:31S 24°10' W 046°19'0 0.0
2014-Dec-13 07:18S 24°10' W 046°19'0 0.0
2014-Dec-13 06:33S 24°10' W 046°19'0 0.0
2014-Dec-13 05:30S 24°10' W 046°19'0 0.0
2014-Dec-13 04:29S 24°10' W 046°19'0 0.0
2014-Dec-13 03:29S 24°10' W 046°19'0 0.1
2014-Dec-13 02:28S 24°10' W 046°19'0 0.0
2014-Dec-13 01:16S 24°10' W 046°19'0 0.0
2014-Dec-12 23:27S 24°10' W 046°19'0 0.2
2014-Dec-12 22:30S 24°10' W 046°19'0 0.1
2014-Dec-12 21:20S 24°10' W 046°19'0 0.0
2014-Dec-12 20:20S 24°10' W 046°19'0 0.0
2014-Dec-12 18:07S 24°10' W 046°19'0 0.0
2014-Dec-12 17:30S 24°10' W 046°19'0 0.1
2014-Dec-12 16:18S 24°10' W 046°19'0 0.0
2014-Dec-12 15:30S 24°10' W 046°19'0 0.0
2014-Dec-12 10:09S 24°10' W 046°19'0 0.0
2014-Dec-12 09:33S 24°10' W 046°19'0 0.0
2014-Dec-12 07:32S 24°10' W 046°19'0 0.0
2014-Dec-12 06:32S 24°10' W 046°19'0 0.0
2014-Dec-12 05:31S 24°10' W 046°19'0 0.1
2014-Dec-12 03:18S 24°10' W 046°19'0 0.0
2014-Dec-12 02:30S 24°10' W 046°19'0 0.1
2014-Dec-12 01:17S 24°10' W 046°19'0 0.0
2014-Dec-11 19:09S 24°10' W 046°19'0 0.0
2014-Dec-11 12:28S 24°10' W 046°19'0 0.1
2014-Dec-11 11:20S 24°10' W 046°19'0 0.0
2014-Dec-11 10:14S 24°10' W 046°19'6 3.2
2014-Dec-11 08:31S 24°15' W 046°16'  

Dump ship's entire track history